Terminal Aerodrome Forecast
Issued by NWS

Home | Current Version | Previous Version | Text Only | Print | Product List | Glossary On
Versions: 1 2 3 4 5 6 7 8 9 10 11 12 13 14 15 16 17
000
FTUS44 KLIX 290520
TAFHDC
TAF
KHDC 290520Z 2906/3006 00000KT P6SM SKC
     FM290900 00000KT 4SM BR FEW025
     FM291300 00000KT P6SM FEW200
     FM291800 VRB03KT P6SM SCT100=

USA.gov is the U.S. government's official web portal to all federal, state and local government web resources and services.